sensor_id;sensor_type;location;lat;lon;timestamp;P1;durP1;ratioP1;P2;durP2;ratioP2
27161;SDS011;54464;50.558;9.704;2022-08-04T00:02:31;4.50;;;4.10;;
27161;SDS011;54464;50.558;9.704;2022-08-04T00:04:31;4.40;;;4.07;;
27161;SDS011;54464;50.558;9.704;2022-08-04T00:07:39;4.78;;;4.28;;
27161;SDS011;54464;50.558;9.704;2022-08-04T00:10:09;5.18;;;4.53;;
27161;SDS011;54464;50.558;9.704;2022-08-04T00:12:35;4.55;;;4.10;;
27161;SDS011;54464;50.558;9.704;2022-08-04T00:15:06;4.70;;;4.07;;
27161;SDS011;54464;50.558;9.704;2022-08-04T00:17:39;5.20;;;4.20;;
27161;SDS011;54464;50.558;9.704;2022-08-04T00:20:09;4.88;;;4.32;;
27161;SDS011;54464;50.558;9.704;2022-08-04T00:22:37;5.15;;;4.50;;
27161;SDS011;54464;50.558;9.704;2022-08-04T00:25:05;4.97;;;4.05;;
27161;SDS011;54464;50.558;9.704;2022-08-04T00:27:31;4.30;;;3.90;;
27161;SDS011;54464;50.558;9.704;2022-08-04T00:29:58;4.75;;;4.18;;
27161;SDS011;54464;50.558;9.704;2022-08-04T00:32:27;4.88;;;4.38;;
27161;SDS011;54464;50.558;9.704;2022-08-04T00:34:53;4.60;;;4.20;;
27161;SDS011;54464;50.558;9.704;2022-08-04T00:37:21;5.88;;;4.10;;
27161;SDS011;54464;50.558;9.704;2022-08-04T00:39:50;4.13;;;3.83;;
27161;SDS011;54464;50.558;9.704;2022-08-04T00:48:24;6.78;;;5.28;;
27161;SDS011;54464;50.558;9.704;2022-08-04T01:02:09;5.43;;;4.85;;
27161;SDS011;54464;50.558;9.704;2022-08-04T01:05:01;5.95;;;5.10;;
27161;SDS011;54464;50.558;9.704;2022-08-04T01:10:45;6.00;;;5.10;;
27161;SDS011;54464;50.558;9.704;2022-08-04T01:16:47;4.47;;;3.90;;
27161;SDS011;54464;50.558;9.704;2022-08-04T01:22:27;5.85;;;5.15;;
27161;SDS011;54464;50.558;9.704;2022-08-04T01:27:48;6.25;;;4.85;;
27161;SDS011;54464;50.558;9.704;2022-08-04T01:30:33;5.38;;;4.72;;
27161;SDS011;54464;50.558;9.704;2022-08-04T01:33:02;4.78;;;4.38;;
27161;SDS011;54464;50.558;9.704;2022-08-04T01:35:42;4.85;;;4.10;;
27161;SDS011;54464;50.558;9.704;2022-08-04T01:38:45;5.07;;;4.20;;
27161;SDS011;54464;50.558;9.704;2022-08-04T01:41:05;5.28;;;4.50;;
27161;SDS011;54464;50.558;9.704;2022-08-04T01:43:40;4.88;;;4.47;;
27161;SDS011;54464;50.558;9.704;2022-08-04T01:46:09;5.35;;;4.90;;
27161;SDS011;54464;50.558;9.704;2022-08-04T01:48:41;5.18;;;4.78;;
27161;SDS011;54464;50.558;9.704;2022-08-04T01:51:10;5.30;;;4.90;;
27161;SDS011;54464;50.558;9.704;2022-08-04T01:53:42;6.28;;;4.90;;
27161;SDS011;54464;50.558;9.704;2022-08-04T01:56:10;6.25;;;4.90;;
27161;SDS011;54464;50.558;9.704;2022-08-04T01:58:37;4.93;;;4.50;;
27161;SDS011;54464;50.558;9.704;2022-08-04T02:01:07;6.15;;;4.88;;
27161;SDS011;54464;50.558;9.704;2022-08-04T02:03:57;5.35;;;4.95;;
27161;SDS011;54464;50.558;9.704;2022-08-04T02:11:36;5.53;;;4.88;;
27161;SDS011;54464;50.558;9.704;2022-08-04T02:17:12;4.45;;;4.05;;
27161;SDS011;54464;50.558;9.704;2022-08-04T02:19:56;4.70;;;4.17;;
27161;SDS011;54464;50.558;9.704;2022-08-04T02:22:28;4.70;;;4.30;;
27161;SDS011;54464;50.558;9.704;2022-08-04T02:25:00;4.40;;;4.07;;
27161;SDS011;54464;50.558;9.704;2022-08-04T02:27:31;4.20;;;3.78;;
27161;SDS011;54464;50.558;9.704;2022-08-04T02:30:11;4.40;;;4.00;;
27161;SDS011;54464;50.558;9.704;2022-08-04T02:32:37;4.57;;;4.17;;
27161;SDS011;54464;50.558;9.704;2022-08-04T02:35:06;4.63;;;4.17;;
27161;SDS011;54464;50.558;9.704;2022-08-04T02:37:35;4.40;;;4.00;;
27161;SDS011;54464;50.558;9.704;2022-08-04T02:40:03;4.67;;;4.30;;
27161;SDS011;54464;50.558;9.704;2022-08-04T02:42:31;4.30;;;4.00;;
27161;SDS011;54464;50.558;9.704;2022-08-04T02:44:58;4.00;;;3.70;;
27161;SDS011;54464;50.558;9.704;2022-08-04T02:47:25;4.97;;;4.57;;
27161;SDS011;54464;50.558;9.704;2022-08-04T02:49:52;5.20;;;4.78;;
27161;SDS011;54464;50.558;9.704;2022-08-04T02:52:19;5.40;;;4.80;;
27161;SDS011;54464;50.558;9.704;2022-08-04T02:54:46;5.83;;;5.33;;
27161;SDS011;54464;50.558;9.704;2022-08-04T02:57:15;5.83;;;5.30;;
27161;SDS011;54464;50.558;9.704;2022-08-04T03:02:35;5.50;;;5.00;;
27161;SDS011;54464;50.558;9.704;2022-08-04T03:05:16;5.77;;;5.27;;
27161;SDS011;54464;50.558;9.704;2022-08-04T03:08:04;5.47;;;4.93;;
27161;SDS011;54464;50.558;9.704;2022-08-04T03:16:29;7.30;;;5.30;;
27161;SDS011;54464;50.558;9.704;2022-08-04T03:22:17;5.50;;;5.00;;
27161;SDS011;54464;50.558;9.704;2022-08-04T03:31:09;6.87;;;5.83;;
27161;SDS011;54464;50.558;9.704;2022-08-04T03:41:53;5.67;;;5.17;;
27161;SDS011;54464;50.558;9.704;2022-08-04T04:03:47;5.87;;;5.30;;
27161;SDS011;54464;50.558;9.704;2022-08-04T04:09:24;7.47;;;6.07;;
27161;SDS011;54464;50.558;9.704;2022-08-04T04:17:17;5.70;;;5.30;;
27161;SDS011;54464;50.558;9.704;2022-08-04T04:22:43;6.30;;;5.70;;
27161;SDS011;54464;50.558;9.704;2022-08-04T04:33:54;6.23;;;5.73;;
27161;SDS011;54464;50.558;9.704;2022-08-04T04:36:43;6.67;;;6.07;;
27161;SDS011;54464;50.558;9.704;2022-08-04T04:42:41;6.20;;;5.70;;
27161;SDS011;54464;50.558;9.704;2022-08-04T04:53:46;6.37;;;5.83;;
27161;SDS011;54464;50.558;9.704;2022-08-04T04:56:39;6.53;;;5.93;;
27161;SDS011;54464;50.558;9.704;2022-08-04T05:02:41;6.57;;;5.80;;
27161;SDS011;54464;50.558;9.704;2022-08-04T05:08:09;7.77;;;6.67;;
27161;SDS011;54464;50.558;9.704;2022-08-04T05:11:02;5.80;;;5.30;;
27161;SDS011;54464;50.558;9.704;2022-08-04T05:13:41;6.77;;;6.27;;
27161;SDS011;54464;50.558;9.704;2022-08-04T05:16:15;6.13;;;5.47;;
27161;SDS011;54464;50.558;9.704;2022-08-04T05:18:46;6.70;;;6.00;;
27161;SDS011;54464;50.558;9.704;2022-08-04T05:24:09;7.90;;;7.20;;
27161;SDS011;54464;50.558;9.704;2022-08-04T05:26:40;7.70;;;6.90;;
27161;SDS011;54464;50.558;9.704;2022-08-04T05:29:33;7.30;;;6.47;;
27161;SDS011;54464;50.558;9.704;2022-08-04T05:32:00;7.37;;;6.57;;
27161;SDS011;54464;50.558;9.704;2022-08-04T05:34:34;7.30;;;6.53;;
27161;SDS011;54464;50.558;9.704;2022-08-04T05:37:09;7.13;;;6.43;;
27161;SDS011;54464;50.558;9.704;2022-08-04T05:39:44;6.33;;;5.80;;
27161;SDS011;54464;50.558;9.704;2022-08-04T05:42:13;8.77;;;6.67;;
27161;SDS011;54464;50.558;9.704;2022-08-04T05:44:40;6.60;;;6.00;;
27161;SDS011;54464;50.558;9.704;2022-08-04T05:47:07;7.50;;;6.80;;
27161;SDS011;54464;50.558;9.704;2022-08-04T05:49:36;7.20;;;6.30;;
27161;SDS011;54464;50.558;9.704;2022-08-04T05:52:05;9.43;;;7.03;;
27161;SDS011;54464;50.558;9.704;2022-08-04T05:54:32;8.03;;;7.23;;
27161;SDS011;54464;50.558;9.704;2022-08-04T05:57:00;9.00;;;6.77;;
27161;SDS011;54464;50.558;9.704;2022-08-04T05:59:28;8.03;;;6.90;;
27161;SDS011;54464;50.558;9.704;2022-08-04T06:01:56;7.67;;;6.97;;
27161;SDS011;54464;50.558;9.704;2022-08-04T06:04:33;7.57;;;6.83;;
27161;SDS011;54464;50.558;9.704;2022-08-04T06:07:02;7.23;;;6.53;;
27161;SDS011;54464;50.558;9.704;2022-08-04T06:09:28;8.23;;;6.93;;
27161;SDS011;54464;50.558;9.704;2022-08-04T06:11:55;7.60;;;6.37;;
27161;SDS011;54464;50.558;9.704;2022-08-04T06:14:35;7.47;;;6.60;;
27161;SDS011;54464;50.558;9.704;2022-08-04T06:17:04;8.93;;;7.20;;
27161;SDS011;54464;50.558;9.704;2022-08-04T06:19:32;8.10;;;6.67;;
27161;SDS011;54464;50.558;9.704;2022-08-04T06:22:01;7.03;;;6.32;;
27161;SDS011;54464;50.558;9.704;2022-08-04T06:24:29;7.20;;;6.43;;
27161;SDS011;54464;50.558;9.704;2022-08-04T06:26:57;7.95;;;6.55;;
27161;SDS011;54464;50.558;9.704;2022-08-04T06:29:25;9.02;;;7.50;;
27161;SDS011;54464;50.558;9.704;2022-08-04T06:32:10;8.35;;;7.13;;
27161;SDS011;54464;50.558;9.704;2022-08-04T06:35:01;8.77;;;7.50;;
27161;SDS011;54464;50.558;9.704;2022-08-04T06:37:35;7.85;;;7.13;;
27161;SDS011;54464;50.558;9.704;2022-08-04T06:40:02;7.50;;;6.80;;
27161;SDS011;54464;50.558;9.704;2022-08-04T06:42:28;7.95;;;6.95;;
27161;SDS011;54464;50.558;9.704;2022-08-04T06:44:56;7.43;;;6.72;;
27161;SDS011;54464;50.558;9.704;2022-08-04T06:47:23;8.07;;;7.28;;
27161;SDS011;54464;50.558;9.704;2022-08-04T06:49:50;8.05;;;7.07;;
27161;SDS011;54464;50.558;9.704;2022-08-04T06:52:18;7.85;;;7.05;;
27161;SDS011;54464;50.558;9.704;2022-08-04T06:54:45;9.20;;;6.85;;
27161;SDS011;54464;50.558;9.704;2022-08-04T06:57:12;8.95;;;7.07;;
27161;SDS011;54464;50.558;9.704;2022-08-04T06:59:42;8.00;;;6.03;;
27161;SDS011;54464;50.558;9.704;2022-08-04T07:02:28;5.57;;;5.07;;
27161;SDS011;54464;50.558;9.704;2022-08-04T07:04:57;6.97;;;6.28;;
27161;SDS011;54464;50.558;9.704;2022-08-04T07:07:23;9.15;;;7.03;;
27161;SDS011;54464;50.558;9.704;2022-08-04T07:09:49;9.90;;;6.90;;
27161;SDS011;54464;50.558;9.704;2022-08-04T07:12:16;6.45;;;5.85;;
27161;SDS011;54464;50.558;9.704;2022-08-04T07:14:48;7.93;;;5.95;;
27161;SDS011;54464;50.558;9.704;2022-08-04T07:17:17;7.57;;;5.47;;
27161;SDS011;54464;50.558;9.704;2022-08-04T07:19:45;6.10;;;5.53;;
27161;SDS011;54464;50.558;9.704;2022-08-04T07:22:11;9.63;;;6.22;;
27161;SDS011;54464;50.558;9.704;2022-08-04T07:24:38;9.13;;;6.03;;
27161;SDS011;54464;50.558;9.704;2022-08-04T07:27:05;8.45;;;7.43;;
27161;SDS011;54464;50.558;9.704;2022-08-04T07:29:31;9.27;;;7.78;;
27161;SDS011;54464;50.558;9.704;2022-08-04T07:31:59;10.35;;;7.32;;
27161;SDS011;54464;50.558;9.704;2022-08-04T07:34:30;12.60;;;8.00;;
27161;SDS011;54464;50.558;9.704;2022-08-04T07:39:51;8.07;;;6.72;;
27161;SDS011;54464;50.558;9.704;2022-08-04T07:42:17;8.40;;;6.82;;
27161;SDS011;54464;50.558;9.704;2022-08-04T07:44:44;8.27;;;6.88;;
27161;SDS011;54464;50.558;9.704;2022-08-04T07:47:10;8.18;;;6.25;;
27161;SDS011;54464;50.558;9.704;2022-08-04T07:49:36;6.10;;;5.53;;
27161;SDS011;54464;50.558;9.704;2022-08-04T07:52:02;6.03;;;5.40;;
27161;SDS011;54464;50.558;9.704;2022-08-04T07:54:29;6.25;;;5.50;;
27161;SDS011;54464;50.558;9.704;2022-08-04T07:56:55;5.53;;;5.10;;
27161;SDS011;54464;50.558;9.704;2022-08-04T07:59:21;6.72;;;4.53;;
27161;SDS011;54464;50.558;9.704;2022-08-04T08:01:47;5.60;;;4.25;;
27161;SDS011;54464;50.558;9.704;2022-08-04T08:04:13;6.47;;;4.72;;
27161;SDS011;54464;50.558;9.704;2022-08-04T08:06:40;4.90;;;4.40;;
27161;SDS011;54464;50.558;9.704;2022-08-04T08:09:07;6.57;;;4.60;;
27161;SDS011;54464;50.558;9.704;2022-08-04T08:11:42;5.50;;;3.78;;
27161;SDS011;54464;50.558;9.704;2022-08-04T08:14:14;7.15;;;3.72;;
27161;SDS011;54464;50.558;9.704;2022-08-04T08:16:44;4.05;;;3.53;;
27161;SDS011;54464;50.558;9.704;2022-08-04T08:19:10;5.57;;;3.65;;
27161;SDS011;54464;50.558;9.704;2022-08-04T08:21:37;4.38;;;3.97;;
27161;SDS011;54464;50.558;9.704;2022-08-04T08:24:03;4.38;;;3.60;;
27161;SDS011;54464;50.558;9.704;2022-08-04T08:26:29;3.55;;;3.20;;
27161;SDS011;54464;50.558;9.704;2022-08-04T08:28:56;3.28;;;2.80;;
27161;SDS011;54464;50.558;9.704;2022-08-04T08:31:22;4.15;;;2.60;;
27161;SDS011;54464;50.558;9.704;2022-08-04T08:33:48;5.10;;;2.95;;
27161;SDS011;54464;50.558;9.704;2022-08-04T08:36:17;4.72;;;3.00;;
27161;SDS011;54464;50.558;9.704;2022-08-04T08:44:48;4.25;;;2.53;;
27161;SDS011;54464;50.558;9.704;2022-08-04T08:55:55;3.53;;;2.42;;
27161;SDS011;54464;50.558;9.704;2022-08-04T09:12:58;5.90;;;2.65;;
27161;SDS011;54464;50.558;9.704;2022-08-04T09:15:40;2.38;;;2.15;;
27161;SDS011;54464;50.558;9.704;2022-08-04T09:18:26;6.65;;;2.60;;
27161;SDS011;54464;50.558;9.704;2022-08-04T09:21:23;2.63;;;1.95;;
27161;SDS011;54464;50.558;9.704;2022-08-04T09:26:37;2.83;;;2.17;;
27161;SDS011;54464;50.558;9.704;2022-08-04T09:37:45;2.05;;;1.42;;
27161;SDS011;54464;50.558;9.704;2022-08-04T09:40:20;1.95;;;1.52;;
27161;SDS011;54464;50.558;9.704;2022-08-04T09:45:23;2.75;;;1.52;;
27161;SDS011;54464;50.558;9.704;2022-08-04T09:48:04;3.30;;;1.50;;
27161;SDS011;54464;50.558;9.704;2022-08-04T09:50:34;2.20;;;1.27;;
27161;SDS011;54464;50.558;9.704;2022-08-04T09:56:06;2.17;;;1.30;;
27161;SDS011;54464;50.558;9.704;2022-08-04T10:01:23;1.45;;;1.30;;
27161;SDS011;54464;50.558;9.704;2022-08-04T10:04:03;2.10;;;1.13;;
27161;SDS011;54464;50.558;9.704;2022-08-04T10:17:36;1.63;;;1.40;;
27161;SDS011;54464;50.558;9.704;2022-08-04T10:23:11;1.88;;;1.40;;
27161;SDS011;54464;50.558;9.704;2022-08-04T10:25:41;3.10;;;1.35;;
27161;SDS011;54464;50.558;9.704;2022-08-04T10:28:23;1.55;;;1.30;;
27161;SDS011;54464;50.558;9.704;2022-08-04T10:30:56;1.92;;;1.33;;
27161;SDS011;54464;50.558;9.704;2022-08-04T10:33:27;1.65;;;1.17;;
27161;SDS011;54464;50.558;9.704;2022-08-04T10:36:03;1.90;;;1.35;;
27161;SDS011;54464;50.558;9.704;2022-08-04T10:38:36;1.98;;;1.40;;
27161;SDS011;54464;50.558;9.704;2022-08-04T10:41:29;1.80;;;1.30;;
27161;SDS011;54464;50.558;9.704;2022-08-04T10:46:56;1.38;;;1.27;;
27161;SDS011;54464;50.558;9.704;2022-08-04T10:52:02;1.77;;;1.25;;
27161;SDS011;54464;50.558;9.704;2022-08-04T10:54:45;1.70;;;1.50;;
27161;SDS011;54464;50.558;9.704;2022-08-04T10:57:34;1.75;;;1.15;;
27161;SDS011;54464;50.558;9.704;2022-08-04T11:00:12;4.25;;;1.50;;
27161;SDS011;54464;50.558;9.704;2022-08-04T11:11:00;2.22;;;1.40;;
27161;SDS011;54464;50.558;9.704;2022-08-04T11:13:35;1.30;;;1.20;;
27161;SDS011;54464;50.558;9.704;2022-08-04T11:16:12;1.40;;;1.30;;
27161;SDS011;54464;50.558;9.704;2022-08-04T11:21:40;2.05;;;1.10;;
27161;SDS011;54464;50.558;9.704;2022-08-04T11:24:16;1.30;;;1.20;;
27161;SDS011;54464;50.558;9.704;2022-08-04T11:26:48;2.05;;;1.30;;
27161;SDS011;54464;50.558;9.704;2022-08-04T11:30:06;1.30;;;1.10;;
27161;SDS011;54464;50.558;9.704;2022-08-04T11:35:01;1.10;;;1.00;;
27161;SDS011;54464;50.558;9.704;2022-08-04T11:37:40;1.77;;;1.40;;
27161;SDS011;54464;50.558;9.704;2022-08-04T11:40:12;1.20;;;1.10;;
27161;SDS011;54464;50.558;9.704;2022-08-04T11:42:56;1.95;;;1.23;;
27161;SDS011;54464;50.558;9.704;2022-08-04T11:45:40;1.40;;;1.02;;
27161;SDS011;54464;50.558;9.704;2022-08-04T11:48:16;1.30;;;1.15;;
27161;SDS011;54464;50.558;9.704;2022-08-04T11:50:51;1.30;;;1.20;;
27161;SDS011;54464;50.558;9.704;2022-08-04T11:53:18;1.80;;;1.30;;
27161;SDS011;54464;50.558;9.704;2022-08-04T11:55:51;1.85;;;1.35;;
27161;SDS011;54464;50.558;9.704;2022-08-04T11:58:19;3.22;;;1.30;;
27161;SDS011;54464;50.558;9.704;2022-08-04T12:01:07;1.60;;;1.30;;
27161;SDS011;54464;50.558;9.704;2022-08-04T12:06:21;1.42;;;1.23;;
27161;SDS011;54464;50.558;9.704;2022-08-04T12:11:59;3.33;;;1.50;;
27161;SDS011;54464;50.558;9.704;2022-08-04T12:14:40;1.35;;;1.25;;
27161;SDS011;54464;50.558;9.704;2022-08-04T12:17:34;2.25;;;1.50;;
27161;SDS011;54464;50.558;9.704;2022-08-04T12:20:07;2.20;;;1.42;;
27161;SDS011;54464;50.558;9.704;2022-08-04T12:22:36;1.77;;;1.58;;
27161;SDS011;54464;50.558;9.704;2022-08-04T12:25:08;2.25;;;1.50;;
27161;SDS011;54464;50.558;9.704;2022-08-04T12:30:27;2.03;;;1.40;;
27161;SDS011;54464;50.558;9.704;2022-08-04T12:35:52;1.60;;;1.50;;
27161;SDS011;54464;50.558;9.704;2022-08-04T12:38:22;1.55;;;1.45;;
27161;SDS011;54464;50.558;9.704;2022-08-04T12:40:56;3.60;;;1.33;;
27161;SDS011;54464;50.558;9.704;2022-08-04T12:43:42;4.20;;;1.73;;
27161;SDS011;54464;50.558;9.704;2022-08-04T12:46:12;1.60;;;1.50;;
27161;SDS011;54464;50.558;9.704;2022-08-04T12:48:47;1.50;;;1.40;;
27161;SDS011;54464;50.558;9.704;2022-08-04T12:51:14;1.73;;;1.45;;
27161;SDS011;54464;50.558;9.704;2022-08-04T12:53:41;1.80;;;1.60;;
27161;SDS011;54464;50.558;9.704;2022-08-04T12:56:08;2.83;;;1.42;;
27161;SDS011;54464;50.558;9.704;2022-08-04T12:58:36;1.63;;;1.52;;
27161;SDS011;54464;50.558;9.704;2022-08-04T13:01:08;1.63;;;1.52;;
27161;SDS011;54464;50.558;9.704;2022-08-04T13:03:52;1.83;;;1.60;;
27161;SDS011;54464;50.558;9.704;2022-08-04T13:06:26;1.92;;;1.70;;
27161;SDS011;54464;50.558;9.704;2022-08-04T13:08:55;2.17;;;1.60;;
27161;SDS011;54464;50.558;9.704;2022-08-04T13:11:54;2.67;;;1.52;;
27161;SDS011;54464;50.558;9.704;2022-08-04T13:14:23;2.03;;;1.40;;
27161;SDS011;54464;50.558;9.704;2022-08-04T13:16:56;1.50;;;1.40;;
27161;SDS011;54464;50.558;9.704;2022-08-04T13:19:24;3.58;;;1.70;;
27161;SDS011;54464;50.558;9.704;2022-08-04T13:21:50;1.52;;;1.40;;
27161;SDS011;54464;50.558;9.704;2022-08-04T13:24:18;1.65;;;1.55;;
27161;SDS011;54464;50.558;9.704;2022-08-04T13:27:19;2.20;;;1.52;;
27161;SDS011;54464;50.558;9.704;2022-08-04T13:29:41;1.45;;;1.35;;
27161;SDS011;54464;50.558;9.704;2022-08-04T13:32:09;1.70;;;1.60;;
27161;SDS011;54464;50.558;9.704;2022-08-04T13:34:39;2.40;;;1.55;;
27161;SDS011;54464;50.558;9.704;2022-08-04T13:37:06;2.00;;;1.58;;
27161;SDS011;54464;50.558;9.704;2022-08-04T13:39:33;3.40;;;1.50;;
27161;SDS011;54464;50.558;9.704;2022-08-04T13:42:01;1.48;;;1.38;;
27161;SDS011;54464;50.558;9.704;2022-08-04T13:44:33;1.52;;;1.40;;
27161;SDS011;54464;50.558;9.704;2022-08-04T13:47:02;2.00;;;1.40;;
27161;SDS011;54464;50.558;9.704;2022-08-04T13:49:30;2.45;;;1.50;;
27161;SDS011;54464;50.558;9.704;2022-08-04T13:51:58;2.00;;;1.60;;
27161;SDS011;54464;50.558;9.704;2022-08-04T13:54:25;3.28;;;1.60;;
27161;SDS011;54464;50.558;9.704;2022-08-04T13:57:07;1.55;;;1.45;;
27161;SDS011;54464;50.558;9.704;2022-08-04T13:59:40;1.70;;;1.60;;
27161;SDS011;54464;50.558;9.704;2022-08-04T14:02:15;1.98;;;1.40;;
27161;SDS011;54464;50.558;9.704;2022-08-04T14:07:53;2.67;;;1.60;;
27161;SDS011;54464;50.558;9.704;2022-08-04T14:10:21;2.25;;;1.38;;
27161;SDS011;54464;50.558;9.704;2022-08-04T14:12:48;1.60;;;1.50;;
27161;SDS011;54464;50.558;9.704;2022-08-04T14:15:31;2.00;;;1.80;;
27161;SDS011;54464;50.558;9.704;2022-08-04T14:18:15;1.63;;;1.52;;
27161;SDS011;54464;50.558;9.704;2022-08-04T14:21:00;1.65;;;1.50;;
27161;SDS011;54464;50.558;9.704;2022-08-04T14:23:27;1.73;;;1.58;;
27161;SDS011;54464;50.558;9.704;2022-08-04T14:25:53;1.70;;;1.60;;
27161;SDS011;54464;50.558;9.704;2022-08-04T14:28:26;2.45;;;1.80;;
27161;SDS011;54464;50.558;9.704;2022-08-04T14:30:54;3.08;;;1.80;;
27161;SDS011;54464;50.558;9.704;2022-08-04T14:33:38;2.80;;;1.50;;
27161;SDS011;54464;50.558;9.704;2022-08-04T14:36:05;3.17;;;1.50;;
27161;SDS011;54464;50.558;9.704;2022-08-04T14:38:48;1.80;;;1.50;;
27161;SDS011;54464;50.558;9.704;2022-08-04T14:41:26;1.80;;;1.70;;
27161;SDS011;54464;50.558;9.704;2022-08-04T14:43:56;2.85;;;1.63;;
27161;SDS011;54464;50.558;9.704;2022-08-04T14:46:25;4.00;;;1.77;;
27161;SDS011;54464;50.558;9.704;2022-08-04T14:49:02;2.72;;;1.67;;
27161;SDS011;54464;50.558;9.704;2022-08-04T14:51:52;1.67;;;1.58;;
27161;SDS011;54464;50.558;9.704;2022-08-04T14:54:39;2.33;;;1.60;;
27161;SDS011;54464;50.558;9.704;2022-08-04T14:57:05;2.10;;;1.40;;
27161;SDS011;54464;50.558;9.704;2022-08-04T14:59:39;2.85;;;1.73;;
27161;SDS011;54464;50.558;9.704;2022-08-04T15:02:05;2.33;;;1.55;;
27161;SDS011;54464;50.558;9.704;2022-08-04T15:04:32;2.53;;;1.60;;
27161;SDS011;54464;50.558;9.704;2022-08-04T15:06:58;1.73;;;1.50;;
27161;SDS011;54464;50.558;9.704;2022-08-04T15:09:25;2.78;;;1.33;;
27161;SDS011;54464;50.558;9.704;2022-08-04T15:11:51;1.95;;;1.50;;
27161;SDS011;54464;50.558;9.704;2022-08-04T15:14:17;1.60;;;1.50;;
27161;SDS011;54464;50.558;9.704;2022-08-04T15:16:45;1.92;;;1.70;;
27161;SDS011;54464;50.558;9.704;2022-08-04T15:19:11;1.88;;;1.55;;
27161;SDS011;54464;50.558;9.704;2022-08-04T15:21:37;1.98;;;1.70;;
27161;SDS011;54464;50.558;9.704;2022-08-04T15:24:03;1.70;;;1.55;;
27161;SDS011;54464;50.558;9.704;2022-08-04T15:26:34;2.13;;;1.70;;
27161;SDS011;54464;50.558;9.704;2022-08-04T15:31:53;2.05;;;1.40;;
27161;SDS011;54464;50.558;9.704;2022-08-04T15:34:19;2.28;;;1.73;;
27161;SDS011;54464;50.558;9.704;2022-08-04T15:36:54;1.70;;;1.60;;
27161;SDS011;54464;50.558;9.704;2022-08-04T15:39:47;2.08;;;1.40;;
27161;SDS011;54464;50.558;9.704;2022-08-04T15:44:52;3.42;;;1.55;;
27161;SDS011;54464;50.558;9.704;2022-08-04T15:50:27;2.03;;;1.40;;
27161;SDS011;54464;50.558;9.704;2022-08-04T15:57:56;1.27;;;1.17;;
27161;SDS011;54464;50.558;9.704;2022-08-04T16:00:27;2.13;;;1.50;;
27161;SDS011;54464;50.558;9.704;2022-08-04T16:16:25;1.65;;;1.42;;
27161;SDS011;54464;50.558;9.704;2022-08-04T16:19:05;3.17;;;1.60;;
27161;SDS011;54464;50.558;9.704;2022-08-04T16:21:32;2.00;;;1.80;;
27161;SDS011;54464;50.558;9.704;2022-08-04T16:24:08;2.38;;;1.58;;
27161;SDS011;54464;50.558;9.704;2022-08-04T16:26:57;1.95;;;1.40;;
27161;SDS011;54464;50.558;9.704;2022-08-04T16:34:38;1.85;;;1.70;;
27161;SDS011;54464;50.558;9.704;2022-08-04T16:37:07;2.45;;;1.40;;
27161;SDS011;54464;50.558;9.704;2022-08-04T16:39:35;2.50;;;1.50;;
27161;SDS011;54464;50.558;9.704;2022-08-04T16:42:48;2.38;;;1.50;;
27161;SDS011;54464;50.558;9.704;2022-08-04T16:50:19;3.17;;;1.73;;
27161;SDS011;54464;50.558;9.704;2022-08-04T16:52:47;3.00;;;1.40;;
27161;SDS011;54464;50.558;9.704;2022-08-04T16:55:17;2.17;;;1.48;;
27161;SDS011;54464;50.558;9.704;2022-08-04T16:57:45;1.77;;;1.48;;
27161;SDS011;54464;50.558;9.704;2022-08-04T17:00:11;1.55;;;1.40;;
27161;SDS011;54464;50.558;9.704;2022-08-04T17:02:37;3.45;;;1.50;;
27161;SDS011;54464;50.558;9.704;2022-08-04T17:05:03;2.78;;;1.77;;
27161;SDS011;54464;50.558;9.704;2022-08-04T17:07:47;6.22;;;1.55;;
27161;SDS011;54464;50.558;9.704;2022-08-04T17:10:37;1.63;;;1.33;;
27161;SDS011;54464;50.558;9.704;2022-08-04T17:15:51;2.35;;;1.30;;
27161;SDS011;54464;50.558;9.704;2022-08-04T17:18:20;3.35;;;1.48;;
27161;SDS011;54464;50.558;9.704;2022-08-04T17:33:44;3.22;;;1.60;;
27161;SDS011;54464;50.558;9.704;2022-08-04T17:36:12;3.17;;;1.52;;
27161;SDS011;54464;50.558;9.704;2022-08-04T17:38:49;3.75;;;1.67;;
27161;SDS011;54464;50.558;9.704;2022-08-04T17:41:20;2.83;;;1.70;;
27161;SDS011;54464;50.558;9.704;2022-08-04T17:44:00;2.83;;;1.73;;
27161;SDS011;54464;50.558;9.704;2022-08-04T17:46:34;1.83;;;1.65;;
27161;SDS011;54464;50.558;9.704;2022-08-04T17:49:10;3.55;;;1.55;;
27161;SDS011;54464;50.558;9.704;2022-08-04T17:51:45;2.17;;;1.98;;
27161;SDS011;54464;50.558;9.704;2022-08-04T17:54:15;2.88;;;1.75;;
27161;SDS011;54464;50.558;9.704;2022-08-04T17:56:49;2.40;;;1.80;;
27161;SDS011;54464;50.558;9.704;2022-08-04T18:07:15;4.00;;;1.77;;
27161;SDS011;54464;50.558;9.704;2022-08-04T18:12:32;1.98;;;1.77;;
27161;SDS011;54464;50.558;9.704;2022-08-04T18:15:07;2.17;;;1.80;;
27161;SDS011;54464;50.558;9.704;2022-08-04T18:17:46;2.33;;;1.75;;
27161;SDS011;54464;50.558;9.704;2022-08-04T18:20:18;3.05;;;2.05;;
27161;SDS011;54464;50.558;9.704;2022-08-04T18:22:45;2.75;;;1.88;;
27161;SDS011;54464;50.558;9.704;2022-08-04T18:25:11;3.03;;;1.80;;
27161;SDS011;54464;50.558;9.704;2022-08-04T18:27:46;2.10;;;1.90;;
27161;SDS011;54464;50.558;9.704;2022-08-04T18:30:13;2.03;;;1.83;;
27161;SDS011;54464;50.558;9.704;2022-08-04T18:32:39;2.30;;;2.05;;
27161;SDS011;54464;50.558;9.704;2022-08-04T18:35:05;2.58;;;2.03;;
27161;SDS011;54464;50.558;9.704;2022-08-04T18:37:31;2.92;;;1.85;;
27161;SDS011;54464;50.558;9.704;2022-08-04T18:39:57;3.30;;;1.88;;
27161;SDS011;54464;50.558;9.704;2022-08-04T18:42:23;2.63;;;2.13;;
27161;SDS011;54464;50.558;9.704;2022-08-04T18:44:51;3.35;;;2.28;;
27161;SDS011;54464;50.558;9.704;2022-08-04T18:47:19;3.75;;;2.38;;
27161;SDS011;54464;50.558;9.704;2022-08-04T18:49:46;2.47;;;2.08;;
27161;SDS011;54464;50.558;9.704;2022-08-04T18:52:14;2.45;;;2.20;;
27161;SDS011;54464;50.558;9.704;2022-08-04T18:54:40;3.22;;;2.28;;
27161;SDS011;54464;50.558;9.704;2022-08-04T18:57:06;4.10;;;2.60;;
27161;SDS011;54464;50.558;9.704;2022-08-04T18:59:32;3.85;;;2.30;;
27161;SDS011;54464;50.558;9.704;2022-08-04T19:01:59;3.50;;;2.30;;
27161;SDS011;54464;50.558;9.704;2022-08-04T19:04:24;4.10;;;2.42;;
27161;SDS011;54464;50.558;9.704;2022-08-04T19:06:50;5.22;;;2.60;;
27161;SDS011;54464;50.558;9.704;2022-08-04T19:09:16;3.33;;;2.60;;
27161;SDS011;54464;50.558;9.704;2022-08-04T19:11:42;3.22;;;2.90;;
27161;SDS011;54464;50.558;9.704;2022-08-04T19:14:07;3.65;;;2.40;;
27161;SDS011;54464;50.558;9.704;2022-08-04T19:16:33;4.25;;;3.28;;
27161;SDS011;54464;50.558;9.704;2022-08-04T19:19:00;3.35;;;2.58;;
27161;SDS011;54464;50.558;9.704;2022-08-04T19:21:28;3.22;;;2.60;;
27161;SDS011;54464;50.558;9.704;2022-08-04T19:23:54;4.03;;;2.88;;
27161;SDS011;54464;50.558;9.704;2022-08-04T19:26:21;4.22;;;3.03;;
27161;SDS011;54464;50.558;9.704;2022-08-04T19:28:49;4.05;;;3.65;;
27161;SDS011;54464;50.558;9.704;2022-08-04T19:31:15;5.63;;;4.43;;
27161;SDS011;54464;50.558;9.704;2022-08-04T19:33:41;6.78;;;4.00;;
27161;SDS011;54464;50.558;9.704;2022-08-04T19:36:07;4.38;;;3.97;;
27161;SDS011;54464;50.558;9.704;2022-08-04T19:38:33;4.65;;;3.30;;
27161;SDS011;54464;50.558;9.704;2022-08-04T19:41:00;5.32;;;3.00;;
27161;SDS011;54464;50.558;9.704;2022-08-04T19:43:26;3.65;;;3.10;;
27161;SDS011;54464;50.558;9.704;2022-08-04T19:45:51;5.10;;;2.67;;
27161;SDS011;54464;50.558;9.704;2022-08-04T19:48:17;5.03;;;3.00;;
27161;SDS011;54464;50.558;9.704;2022-08-04T19:50:43;3.60;;;2.60;;
27161;SDS011;54464;50.558;9.704;2022-08-04T19:53:09;3.03;;;2.30;;
27161;SDS011;54464;50.558;9.704;2022-08-04T19:55:35;3.75;;;2.47;;
27161;SDS011;54464;50.558;9.704;2022-08-04T19:58:04;4.88;;;2.38;;
27161;SDS011;54464;50.558;9.704;2022-08-04T20:00:31;2.78;;;2.58;;
27161;SDS011;54464;50.558;9.704;2022-08-04T20:02:56;5.32;;;2.70;;
27161;SDS011;54464;50.558;9.704;2022-08-04T20:05:23;3.40;;;2.38;;